Time;durP1;ratioP1;P1;durP2;ratioP2;P2;SDS_P1;SDS_P2;PMS_P1;PMS_P2;Temp;Humidity;BMP_temperature;BMP_pressure;BME280_temperature;BME280_humidity;BME280_pressure;Samples;Min_cycle;Max_cycle;Signal;HPM_P1;HPM_P2
2022/01/03 00:00:28;;;;;;;3.10;2.73;;;9.40;99.90;;;;;;5010285;28;20309;-73
2022/01/03 00:03:10;;;;;;;1.40;1.30;;;9.40;99.90;;;;;;5018705;28;20564;-70
2022/01/03 00:05:56;;;;;;;1.27;1.17;;;9.40;99.90;;;;;;5016778;28;20261;-69
2022/01/03 00:08:31;;;;;;;5.23;1.90;;;9.40;99.90;;;;;;5027254;28;20463;-71
2022/01/03 00:11:02;;;;;;;1.47;1.30;;;9.30;99.90;;;;;;5025897;28;20548;-73
2022/01/03 00:13:33;;;;;;;1.80;1.63;;;9.30;99.90;;;;;;5030939;28;20563;-69
2022/01/03 00:16:04;;;;;;;2.08;1.25;;;9.20;99.90;;;;;;5027610;28;20495;-70
2022/01/03 00:18:35;;;;;;;1.88;1.20;;;9.20;99.90;;;;;;5026362;28;20226;-74
2022/01/03 00:21:20;;;;;;;1.23;1.23;;;9.20;99.90;;;;;;5028072;28;20475;-69
2022/01/03 00:24:05;;;;;;;2.70;1.30;;;9.30;99.90;;;;;;5025667;28;20340;-68
2022/01/03 00:26:37;;;;;;;1.00;0.90;;;9.30;99.90;;;;;;5025304;28;20221;-73
2022/01/03 00:29:17;;;;;;;1.20;1.10;;;9.30;99.90;;;;;;5026020;28;20958;-70
2022/01/03 00:31:51;;;;;;;2.33;2.22;;;9.30;99.90;;;;;;5021862;28;20950;-72
2022/01/03 00:34:23;;;;;;;2.85;1.75;;;9.20;99.90;;;;;;5024846;28;20724;-70
2022/01/03 00:36:54;;;;;;;0.75;0.75;;;9.10;99.90;;;;;;5027613;28;20798;-71
2022/01/03 00:39:27;;;;;;;0.60;0.60;;;9.10;99.90;;;;;;5030211;28;20222;-73
2022/01/03 00:41:59;;;;;;;0.70;0.70;;;9.30;99.90;;;;;;5027001;28;20226;-66
2022/01/03 00:44:37;;;;;;;1.05;0.95;;;9.30;99.90;;;;;;5027499;28;20307;-70
2022/01/03 00:47:12;;;;;;;1.40;1.20;;;9.20;99.90;;;;;;5030848;28;20238;-69
2022/01/03 00:49:43;;;;;;;1.33;1.10;;;9.20;99.90;;;;;;5027423;28;20214;-69
2022/01/03 00:52:14;;;;;;;0.93;0.68;;;9.30;99.90;;;;;;5032842;28;20359;-69
2022/01/03 00:59:08;;;;;;;1.48;1.38;;;9.40;99.90;;;;;;5026264;28;20245;-76
2022/01/03 01:02:09;;;;;;;1.35;1.25;;;9.50;99.90;;;;;;5026360;28;20253;-75
2022/01/03 01:04:47;;;;;;;3.10;2.80;;;9.50;99.90;;;;;;5029837;28;20210;-71
2022/01/03 01:07:19;;;;;;;2.23;2.13;;;9.50;99.90;;;;;;5028760;28;20297;-68
2022/01/03 01:09:53;;;;;;;2.40;2.30;;;9.50;99.90;;;;;;5026102;28;20516;-70
2022/01/03 01:12:24;;;;;;;3.30;2.20;;;9.50;99.90;;;;;;5031644;28;20978;-66
2022/01/03 01:14:55;;;;;;;2.45;2.25;;;9.50;99.90;;;;;;5028281;28;20481;-69
2022/01/03 01:17:30;;;;;;;1.17;1.10;;;9.50;99.90;;;;;;5028566;28;20611;-69
2022/01/03 01:20:01;;;;;;;1.40;1.30;;;9.30;99.90;;;;;;5029592;28;20312;-68
2022/01/03 01:22:32;;;;;;;1.77;1.63;;;9.20;99.90;;;;;;5029847;28;20551;-68
2022/01/03 01:27:56;;;;;;;4.50;3.40;;;9.30;99.90;;;;;;5030670;28;20337;-68
2022/01/03 01:30:29;;;;;;;1.77;1.67;;;9.30;99.90;;;;;;5033707;28;20305;-68
2022/01/03 01:33:04;;;;;;;2.10;1.73;;;9.30;99.90;;;;;;5030205;28;20241;-67
2022/01/03 01:35:42;;;;;;;3.50;3.20;;;9.30;99.90;;;;;;5030357;28;20216;-69
2022/01/03 01:38:15;;;;;;;5.85;5.30;;;9.20;99.90;;;;;;5039749;28;20289;-68
2022/01/03 01:40:49;;;;;;;4.78;4.18;;;8.70;99.90;;;;;;5038861;28;20294;-67
2022/01/03 01:43:25;;;;;;;2.22;2.00;;;8.50;99.90;;;;;;5034040;28;20337;-67
2022/01/03 01:45:58;;;;;;;2.40;2.20;;;8.30;99.90;;;;;;5029049;28;20760;-68
2022/01/03 01:48:37;;;;;;;1.92;1.83;;;8.30;99.90;;;;;;5033796;28;20221;-67
2022/01/03 01:51:10;;;;;;;2.03;1.83;;;8.50;99.90;;;;;;5029266;28;20324;-69
2022/01/03 01:53:43;;;;;;;1.52;1.42;;;8.80;99.90;;;;;;5038655;28;20341;-67
2022/01/03 01:56:22;;;;;;;1.98;1.33;;;9.00;99.90;;;;;;5029055;28;20288;-67
2022/01/03 01:59:12;;;;;;;4.72;2.00;;;9.40;99.90;;;;;;5027907;28;20317;-67
2022/01/03 02:01:51;;;;;;;1.20;0.98;;;9.70;99.90;;;;;;5029746;28;20218;-67
2022/01/03 02:04:45;;;;;;;1.45;1.35;;;9.90;99.90;;;;;;5023370;28;20267;-66
2022/01/03 02:07:40;;;;;;;1.30;1.20;;;10.00;99.90;;;;;;5007102;28;20245;-65
2022/01/03 02:10:13;;;;;;;1.10;1.00;;;10.10;99.90;;;;;;5012947;28;20215;-65
2022/01/03 02:12:46;;;;;;;1.20;1.10;;;10.20;99.90;;;;;;5008607;28;20241;-66
2022/01/03 02:15:19;;;;;;;0.60;0.60;;;10.40;99.90;;;;;;5020815;28;20465;-66
2022/01/03 02:17:50;;;;;;;1.00;0.80;;;10.60;99.90;;;;;;5011573;28;20576;-66
2022/01/03 02:20:26;;;;;;;0.83;0.80;;;10.60;99.90;;;;;;5008867;28;20553;-66
2022/01/03 02:22:57;;;;;;;1.33;1.00;;;10.70;99.90;;;;;;5011441;28;20492;-67
2022/01/03 02:25:28;;;;;;;0.90;0.70;;;10.80;99.90;;;;;;5023973;28;20215;-66
2022/01/03 02:27:59;;;;;;;0.97;0.97;;;10.90;99.90;;;;;;5013505;28;20561;-67
2022/01/03 02:30:32;;;;;;;1.43;1.20;;;10.90;99.90;;;;;;5012879;28;20506;-67
2022/01/03 02:33:03;;;;;;;0.67;0.60;;;10.90;99.90;;;;;;5021110;28;20500;-67
2022/01/03 02:35:39;;;;;;;0.60;0.60;;;11.00;99.90;;;;;;5007230;28;20465;-67
2022/01/03 02:38:11;;;;;;;1.00;1.00;;;10.90;99.90;;;;;;5009479;28;20485;-68
2022/01/03 02:40:42;;;;;;;1.90;1.40;;;10.90;99.90;;;;;;5016223;28;20466;-67
2022/01/03 02:43:13;;;;;;;1.10;1.00;;;10.80;99.90;;;;;;5012898;28;20929;-66
2022/01/03 02:45:44;;;;;;;0.60;0.50;;;10.90;99.90;;;;;;5003420;28;20585;-68
2022/01/03 02:48:15;;;;;;;1.43;1.00;;;10.80;99.90;;;;;;5010895;28;20549;-66
2022/01/03 02:51:09;;;;;;;0.70;0.70;;;10.50;99.90;;;;;;5018717;28;20877;-71
2022/01/03 02:53:46;;;;;;;0.97;0.93;;;10.30;99.90;;;;;;4999046;28;20466;-71
2022/01/03 02:56:21;;;;;;;0.90;0.90;;;10.20;99.90;;;;;;5006145;28;20473;-68
2022/01/03 02:58:52;;;;;;;1.23;1.13;;;10.20;99.90;;;;;;5011648;28;20691;-65
2022/01/03 03:01:23;;;;;;;1.55;1.23;;;10.10;99.90;;;;;;5015604;28;20979;-65
2022/01/03 03:03:54;;;;;;;1.03;1.00;;;10.20;99.90;;;;;;5012716;28;21217;-68
2022/01/03 03:06:29;;;;;;;1.60;1.50;;;10.20;99.90;;;;;;5026317;28;20910;-69
2022/01/03 03:09:08;;;;;;;1.80;1.10;;;10.20;99.90;;;;;;5019416;28;20851;-68
2022/01/03 03:11:46;;;;;;;0.93;0.70;;;10.10;99.90;;;;;;5026994;28;20453;-70
2022/01/03 03:14:18;;;;;;;1.17;0.82;;;9.80;99.90;;;;;;5028949;28;20471;-69
2022/01/03 03:17:12;;;;;;;1.70;1.60;;;9.50;99.90;;;;;;5021996;28;20234;-72
2022/01/03 03:20:18;;;;;;;1.15;0.60;;;9.20;99.90;;;;;;4981252;28;20244;-73
2022/01/03 03:22:52;;;;;;;2.50;1.65;;;9.00;99.90;;;;;;4967477;28;20235;-69
2022/01/03 03:25:25;;;;;;;1.38;1.23;;;8.80;99.90;;;;;;4971009;28;20223;-66
2022/01/03 03:27:58;;;;;;;2.10;0.90;;;8.70;99.90;;;;;;4967655;28;20299;-66
2022/01/03 03:30:31;;;;;;;3.00;2.22;;;8.70;99.90;;;;;;4967156;28;20270;-66
2022/01/03 03:33:06;;;;;;;1.70;1.42;;;8.60;99.90;;;;;;4966638;28;20327;-64
2022/01/03 03:35:38;;;;;;;1.55;1.45;;;8.60;99.90;;;;;;4971309;28;20216;-63
2022/01/03 03:38:11;;;;;;;3.08;2.15;;;8.60;99.90;;;;;;4964596;28;20271;-64
2022/01/03 03:40:45;;;;;;;2.40;2.20;;;8.50;99.90;;;;;;4969475;28;20431;-64
2022/01/03 03:43:17;;;;;;;1.85;1.75;;;8.40;99.90;;;;;;4968183;28;20223;-66
2022/01/03 03:45:49;;;;;;;2.55;2.35;;;8.40;99.90;;;;;;4972580;28;20224;-68
2022/01/03 03:48:21;;;;;;;2.65;2.45;;;8.40;99.90;;;;;;4976413;28;20231;-66
2022/01/03 03:50:52;;;;;;;1.67;1.30;;;8.40;99.90;;;;;;4968884;28;20215;-63
2022/01/03 03:53:26;;;;;;;2.30;1.50;;;8.30;99.90;;;;;;4971558;28;20609;-63
2022/01/03 03:55:56;;;;;;;1.63;1.33;;;8.30;99.90;;;;;;4967100;28;20259;-67
2022/01/03 03:58:27;;;;;;;2.17;1.73;;;8.30;99.90;;;;;;5020259;28;20557;-68
2022/01/03 04:00:58;;;;;;;1.15;1.05;;;8.30;99.90;;;;;;5026255;28;20218;-66
2022/01/03 04:03:40;;;;;;;2.60;2.20;;;8.30;99.90;;;;;;5026277;28;20223;-65
2022/01/03 04:06:11;;;;;;;1.83;1.02;;;8.30;99.90;;;;;;5028524;28;20325;-65
2022/01/03 04:08:45;;;;;;;1.88;1.00;;;8.30;99.90;;;;;;5026427;28;20214;-65
2022/01/03 04:11:17;;;;;;;2.03;1.55;;;8.30;99.90;;;;;;5028127;28;20221;-64
2022/01/03 04:13:47;;;;;;;1.38;0.98;;;8.30;99.90;;;;;;5021606;28;20237;-65
2022/01/03 04:16:18;;;;;;;1.25;1.20;;;8.30;99.90;;;;;;5029989;28;20221;-65
2022/01/03 04:18:49;;;;;;;2.00;1.50;;;8.20;99.90;;;;;;5043735;28;20225;-66
2022/01/03 04:21:20;;;;;;;5.97;4.75;;;8.30;99.90;;;;;;5034423;28;20226;-66
2022/01/03 04:23:53;;;;;;;6.30;5.70;;;8.00;99.90;;;;;;5024590;28;20227;-65
2022/01/03 04:26:24;;;;;;;8.25;7.32;;;7.30;99.90;;;;;;5026300;28;20226;-67
2022/01/03 04:28:55;;;;;;;7.40;6.70;;;6.80;99.90;;;;;;5034770;28;20211;-65
2022/01/03 04:31:26;;;;;;;8.80;7.22;;;6.10;99.90;;;;;;5023763;28;20224;-67
2022/01/03 04:33:57;;;;;;;9.57;7.88;;;5.70;99.90;;;;;;5034924;28;20222;-65
2022/01/03 04:36:33;;;;;;;11.23;8.93;;;5.30;99.90;;;;;;5027555;28;20226;-65
2022/01/03 04:39:06;;;;;;;9.35;8.45;;;5.10;99.90;;;;;;5024707;28;20253;-65
2022/01/03 04:41:37;;;;;;;9.40;8.05;;;4.90;99.90;;;;;;5029096;28;20261;-67
2022/01/03 04:44:11;;;;;;;10.30;7.97;;;4.70;99.90;;;;;;5027603;28;20669;-66
2022/01/03 04:46:45;;;;;;;10.07;9.07;;;4.50;99.90;;;;;;5029470;28;20217;-68
2022/01/03 04:49:16;;;;;;;10.82;8.70;;;4.30;99.90;;;;;;5034910;28;20484;-66
2022/01/03 04:51:47;;;;;;;10.77;9.68;;;4.30;99.90;;;;;;5029648;28;20253;-65
2022/01/03 04:54:20;;;;;;;10.52;9.27;;;4.20;99.90;;;;;;5023869;28;20298;-64
2022/01/03 04:56:58;;;;;;;39.58;15.75;;;4.20;99.90;;;;;;5021351;28;20218;-67
2022/01/03 04:59:29;;;;;;;10.68;9.55;;;4.00;99.90;;;;;;5031867;28;20260;-70
2022/01/03 05:02:03;;;;;;;12.95;11.18;;;3.90;99.90;;;;;;5025826;28;20214;-69
2022/01/03 05:04:35;;;;;;;10.05;8.80;;;3.80;99.90;;;;;;5030096;28;20260;-70
2022/01/03 05:07:06;;;;;;;12.27;9.65;;;3.70;99.90;;;;;;5028613;28;20219;-69
2022/01/03 05:09:38;;;;;;;12.02;9.52;;;3.60;99.90;;;;;;5031474;28;20249;-69
2022/01/03 05:12:11;;;;;;;10.93;9.82;;;3.50;99.90;;;;;;5027839;28;20253;-70
2022/01/03 05:14:41;;;;;;;12.95;10.38;;;3.50;99.90;;;;;;5026554;28;20210;-69
2022/01/03 05:17:13;;;;;;;16.55;11.95;;;3.50;99.90;;;;;;5029823;28;20685;-67
2022/01/03 05:19:44;;;;;;;14.85;10.45;;;3.60;99.90;;;;;;5025607;28;20417;-68
2022/01/03 05:22:15;;;;;;;13.25;11.95;;;3.50;99.90;;;;;;5029768;28;20613;-68
2022/01/03 05:24:47;;;;;;;13.88;11.82;;;3.60;99.90;;;;;;5032733;28;20221;-69
2022/01/03 05:27:18;;;;;;;14.30;11.40;;;3.60;99.90;;;;;;5036423;28;20719;-69
2022/01/03 05:29:49;;;;;;;13.70;11.65;;;3.60;99.90;;;;;;5027740;28;20221;-69
2022/01/03 05:32:26;;;;;;;12.25;9.68;;;3.60;99.90;;;;;;5029227;28;20218;-71
2022/01/03 05:34:57;;;;;;;13.90;11.38;;;3.60;99.90;;;;;;5027397;28;20218;-70
2022/01/03 05:37:28;;;;;;;12.75;11.48;;;3.70;99.90;;;;;;5028415;28;20229;-69
2022/01/03 05:40:01;;;;;;;13.05;11.63;;;3.70;99.90;;;;;;5019664;28;20230;-71
2022/01/03 05:42:32;;;;;;;13.55;11.02;;;3.80;99.90;;;;;;5026180;28;20225;-66
2022/01/03 05:45:04;;;;;;;12.65;10.38;;;3.80;99.90;;;;;;5018880;28;20305;-66
2022/01/03 05:47:39;;;;;;;12.05;10.68;;;3.90;99.90;;;;;;5026417;28;20222;-66
2022/01/03 05:50:10;;;;;;;13.65;9.80;;;3.90;99.90;;;;;;5021686;28;20240;-67
2022/01/03 05:52:41;;;;;;;10.80;9.70;;;3.90;99.90;;;;;;5031739;28;20225;-66
2022/01/03 05:55:14;;;;;;;10.60;9.00;;;3.90;99.90;;;;;;5025209;28;20219;-67
2022/01/03 05:57:52;;;;;;;10.35;9.25;;;3.90;99.90;;;;;;5029253;28;20223;-67
2022/01/03 06:00:25;;;;;;;11.90;10.07;;;3.80;99.90;;;;;;5035637;28;20343;-66
2022/01/03 06:02:58;;;;;;;13.20;10.43;;;3.80;99.90;;;;;;5029784;28;20226;-66
2022/01/03 06:05:53;;;;;;;11.23;9.85;;;3.80;99.90;;;;;;5032809;28;20250;-67
2022/01/03 06:08:24;;;;;;;11.38;10.00;;;3.80;99.90;;;;;;5017205;28;20229;-66
2022/01/03 06:10:56;;;;;;;15.63;13.57;;;3.80;99.90;;;;;;5039017;28;20606;-65
2022/01/03 06:13:27;;;;;;;14.63;12.82;;;4.00;99.90;;;;;;5019012;28;20634;-66
2022/01/03 06:15:58;;;;;;;11.88;10.60;;;3.90;99.90;;;;;;5037638;28;20219;-65
2022/01/03 06:18:30;;;;;;;10.07;9.05;;;3.90;99.90;;;;;;5024256;28;20230;-66
2022/01/03 06:21:00;;;;;;;7.22;6.50;;;3.90;99.90;;;;;;5030328;28;20508;-67
2022/01/03 06:23:31;;;;;;;7.57;6.88;;;4.20;99.90;;;;;;5035406;28;20777;-64
2022/01/03 06:26:04;;;;;;;3.35;2.83;;;4.50;99.90;;;;;;5024735;28;20223;-66
2022/01/03 06:28:35;;;;;;;0.70;0.65;;;5.30;99.90;;;;;;5028769;28;20241;-67
2022/01/03 06:31:05;;;;;;;0.70;0.50;;;6.40;99.90;;;;;;5035108;28;20222;-65
2022/01/03 06:33:36;;;;;;;0.60;0.60;;;7.20;99.90;;;;;;5030007;28;20451;-64
2022/01/03 06:36:08;;;;;;;0.95;0.40;;;7.90;99.90;;;;;;5031932;28;20221;-65
2022/01/03 06:38:38;;;;;;;0.60;0.30;;;8.10;99.90;;;;;;5027690;28;20234;-64
2022/01/03 06:41:11;;;;;;;0.50;0.50;;;8.20;99.90;;;;;;5029100;28;20252;-64
2022/01/03 06:43:42;;;;;;;0.95;0.52;;;8.30;99.90;;;;;;5028759;28;20226;-65
2022/01/03 06:46:13;;;;;;;0.82;0.40;;;8.40;99.90;;;;;;5028249;28;20232;-64
2022/01/03 06:48:46;;;;;;;0.88;0.50;;;8.40;99.90;;;;;;5027979;28;20296;-65
2022/01/03 06:51:17;;;;;;;0.73;0.60;;;8.50;99.90;;;;;;5027182;28;20223;-65
2022/01/03 06:53:48;;;;;;;1.63;0.35;;;8.60;99.90;;;;;;5026985;28;20218;-65
2022/01/03 06:56:20;;;;;;;0.50;0.50;;;8.60;99.90;;;;;;5031837;28;20218;-64
2022/01/03 06:58:51;;;;;;;0.45;0.30;;;8.90;99.90;;;;;;5027631;28;20233;-65
2022/01/03 07:01:22;;;;;;;0.60;0.55;;;8.90;99.90;;;;;;5030545;28;20230;-65
2022/01/03 07:03:53;;;;;;;0.73;0.50;;;9.00;99.90;;;;;;5029657;28;20677;-64
2022/01/03 07:06:24;;;;;;;0.45;0.40;;;9.10;99.90;;;;;;5014277;28;20530;-65
2022/01/03 07:08:55;;;;;;;1.67;0.50;;;9.20;99.90;;;;;;5007272;28;20226;-65
2022/01/03 07:11:27;;;;;;;1.08;0.50;;;9.10;99.90;;;;;;5016230;28;20227;-65
2022/01/03 07:18:55;;;;;;;1.75;0.43;;;9.10;99.90;;;;;;5014516;28;20221;-65
2022/01/03 07:19:38;;;;;;;0.60;0.55;;;8.90;99.90;;;;;;5011987;28;20231;-64
2022/01/03 07:22:10;;;;;;;1.63;0.60;;;8.90;99.90;;;;;;5008998;28;20226;-65
2022/01/03 07:24:42;;;;;;;1.50;0.47;;;8.90;99.90;;;;;;5000572;28;20219;-65
2022/01/03 07:27:15;;;;;;;0.85;0.50;;;8.90;99.90;;;;;;5011663;28;20223;-66
2022/01/03 07:29:48;;;;;;;0.80;0.77;;;8.90;99.90;;;;;;5012895;28;20249;-66
2022/01/03 07:32:18;;;;;;;0.90;0.77;;;8.90;99.90;;;;;;5007524;28;20223;-65
2022/01/03 07:34:49;;;;;;;0.45;0.40;;;8.80;99.90;;;;;;5004476;28;20714;-66
2022/01/03 07:37:20;;;;;;;0.65;0.60;;;8.80;99.90;;;;;;5008604;28;20233;-64
2022/01/03 07:39:52;;;;;;;0.50;0.50;;;8.80;99.90;;;;;;5011270;28;20238;-65
2022/01/03 07:42:25;;;;;;;0.40;0.40;;;8.80;99.90;;;;;;5011237;28;20247;-65
2022/01/03 07:44:56;;;;;;;1.02;0.40;;;8.70;99.90;;;;;;5008937;28;21738;-64
2022/01/03 07:47:27;;;;;;;0.50;0.50;;;8.60;99.90;;;;;;5005338;28;20239;-64
2022/01/03 07:49:58;;;;;;;0.77;0.60;;;8.60;99.90;;;;;;5015380;28;20229;-67
2022/01/03 07:52:29;;;;;;;0.60;0.50;;;8.50;99.90;;;;;;5006622;28;20733;-67
2022/01/03 07:55:00;;;;;;;1.08;0.75;;;8.40;99.90;;;;;;5025393;28;20211;-66
2022/01/03 07:57:32;;;;;;;0.80;0.80;;;8.40;99.90;;;;;;5014025;28;20225;-65
2022/01/03 08:00:05;;;;;;;1.27;0.50;;;8.40;99.90;;;;;;5011548;28;20317;-65
2022/01/03 08:02:38;;;;;;;0.93;0.50;;;8.30;99.90;;;;;;5017956;28;20321;-66
2022/01/03 08:05:11;;;;;;;0.52;0.40;;;8.20;99.90;;;;;;5005253;28;20241;-65
2022/01/03 08:07:43;;;;;;;0.73;0.73;;;8.20;99.90;;;;;;5028084;28;20215;-65
2022/01/03 08:10:15;;;;;;;0.70;0.70;;;8.20;99.90;;;;;;5033332;28;20298;-65
2022/01/03 08:12:47;;;;;;;1.75;0.80;;;8.10;99.90;;;;;;5028081;28;20226;-65
2022/01/03 08:15:18;;;;;;;0.45;0.45;;;8.00;99.90;;;;;;5027721;28;20680;-66
2022/01/03 08:17:49;;;;;;;2.58;0.98;;;7.90;99.90;;;;;;5030798;28;20301;-66
2022/01/03 08:20:21;;;;;;;0.88;0.70;;;7.90;99.90;;;;;;5030387;28;20396;-66
2022/01/03 08:22:52;;;;;;;0.93;0.75;;;7.80;99.90;;;;;;5034755;28;20253;-66
2022/01/03 08:25:25;;;;;;;1.30;0.70;;;7.80;99.90;;;;;;5027525;28;20222;-66
2022/01/03 08:27:58;;;;;;;0.70;0.70;;;7.70;99.90;;;;;;5024324;28;20228;-71
2022/01/03 08:30:32;;;;;;;0.50;0.50;;;7.60;99.90;;;;;;5027675;28;20211;-67
2022/01/03 08:33:03;;;;;;;2.28;0.40;;;7.50;99.90;;;;;;5023871;28;20218;-66
2022/01/03 08:35:34;;;;;;;0.30;0.20;;;7.20;99.90;;;;;;5029361;28;20312;-67
2022/01/03 08:38:05;;;;;;;1.50;0.45;;;7.00;99.90;;;;;;5020145;28;20214;-65
2022/01/03 08:40:41;;;;;;;0.88;0.20;;;6.90;99.90;;;;;;5029006;28;20364;-67
2022/01/03 08:43:14;;;;;;;0.60;0.28;;;6.70;99.90;;;;;;5030788;28;20286;-66
2022/01/03 08:45:57;;;;;;;0.30;0.20;;;6.70;99.90;;;;;;5025554;28;20235;-65
2022/01/03 08:48:31;;;;;;;0.30;0.20;;;6.60;99.90;;;;;;5027222;28;20220;-66
2022/01/03 08:51:02;;;;;;;0.40;0.30;;;6.60;99.90;;;;;;5019925;28;20306;-69
2022/01/03 08:53:35;;;;;;;1.15;0.40;;;6.50;99.90;;;;;;5025470;28;20218;-69
2022/01/03 08:56:06;;;;;;;0.30;0.30;;;6.50;99.90;;;;;;5032688;28;20534;-68
2022/01/03 08:58:39;;;;;;;0.73;0.30;;;6.40;99.90;;;;;;5027790;28;20317;-68
2022/01/03 09:01:09;;;;;;;0.50;0.30;;;6.40;99.90;;;;;;5025974;28;20233;-69
2022/01/03 09:03:41;;;;;;;0.50;0.30;;;6.30;99.90;;;;;;5026448;28;20218;-68
2022/01/03 09:06:13;;;;;;;1.20;0.30;;;6.30;99.90;;;;;;5027215;28;20564;-68
2022/01/03 09:08:44;;;;;;;0.30;0.20;;;6.20;99.90;;;;;;5025194;28;20667;-69
2022/01/03 09:11:15;;;;;;;0.45;0.32;;;6.20;99.90;;;;;;5025897;28;20218;-68
2022/01/03 09:13:48;;;;;;;0.50;0.20;;;6.10;99.90;;;;;;5027375;28;20229;-68
2022/01/03 09:16:18;;;;;;;0.60;0.20;;;6.10;99.90;;;;;;5025572;28;20222;-68
2022/01/03 09:18:49;;;;;;;0.30;0.20;;;6.10;99.90;;;;;;5034714;28;20220;-68
2022/01/03 09:21:29;;;;;;;0.57;0.20;;;6.20;99.90;;;;;;5028046;28;20227;-69
2022/01/03 09:24:20;;;;;;;0.30;0.20;;;6.20;99.90;;;;;;5031894;28;20218;-68
2022/01/03 09:29:40;;;;;;;0.40;0.30;;;6.10;99.90;;;;;;5026998;28;20214;-68
2022/01/03 09:32:11;;;;;;;0.30;0.20;;;6.10;99.90;;;;;;5019797;28;20333;-68
2022/01/03 09:34:42;;;;;;;0.32;0.32;;;6.10;99.90;;;;;;5035019;28;20222;-68
2022/01/03 09:37:16;;;;;;;0.40;0.28;;;6.20;99.90;;;;;;5036354;28;20226;-68
2022/01/03 09:39:48;;;;;;;0.85;0.50;;;6.20;99.90;;;;;;5033681;28;20221;-68
2022/01/03 09:42:23;;;;;;;0.70;0.40;;;6.20;99.90;;;;;;5044891;28;20237;-68
2022/01/03 09:44:58;;;;;;;0.90;0.28;;;6.20;99.90;;;;;;5028149;28;20838;-68
2022/01/03 09:47:32;;;;;;;1.13;0.22;;;6.20;99.90;;;;;;5034033;28;20218;-68
2022/01/03 09:50:03;;;;;;;1.35;0.30;;;6.20;99.90;;;;;;5034706;28;20696;-67
2022/01/03 09:52:35;;;;;;;1.00;0.85;;;6.20;99.90;;;;;;5030841;28;20731;-68
2022/01/03 09:55:07;;;;;;;0.70;0.70;;;6.30;99.90;;;;;;5021400;28;20218;-68
2022/01/03 09:57:38;;;;;;;0.73;0.57;;;6.30;99.90;;;;;;5030809;28;20230;-68
2022/01/03 10:00:11;;;;;;;0.60;0.60;;;6.20;99.90;;;;;;5044594;28;20328;-67
2022/01/03 10:02:45;;;;;;;0.50;0.50;;;6.20;99.90;;;;;;5033821;28;20316;-68
2022/01/03 10:05:16;;;;;;;0.63;0.63;;;6.20;99.90;;;;;;5031240;28;20252;-68
2022/01/03 10:07:48;;;;;;;0.60;0.50;;;6.30;99.90;;;;;;5028539;28;20218;-68
2022/01/03 10:10:19;;;;;;;1.05;0.60;;;6.30;99.90;;;;;;5028633;28;20236;-67
2022/01/03 10:12:50;;;;;;;0.30;0.20;;;6.30;99.90;;;;;;5030290;28;20210;-68
2022/01/03 10:15:22;;;;;;;1.48;0.30;;;6.30;99.90;;;;;;5039788;28;20261;-68
2022/01/03 10:17:53;;;;;;;1.33;0.30;;;6.30;99.90;;;;;;5029143;28;20593;-68
2022/01/03 10:20:29;;;;;;;1.30;0.32;;;6.20;99.90;;;;;;5027465;28;20354;-68
2022/01/03 10:23:11;;;;;;;0.40;0.30;;;6.20;99.90;;;;;;5031927;28;20676;-67
2022/01/03 10:25:42;;;;;;;0.40;0.40;;;6.20;99.90;;;;;;5029920;28;20377;-69
2022/01/03 10:28:21;;;;;;;1.33;1.00;;;6.30;99.90;;;;;;5029468;28;20705;-68
2022/01/03 10:30:54;;;;;;;0.55;0.52;;;6.40;99.90;;;;;;5029061;28;20224;-67
2022/01/03 10:33:26;;;;;;;0.50;0.45;;;6.50;99.90;;;;;;5030461;28;20286;-67
2022/01/03 10:35:58;;;;;;;0.70;0.65;;;6.60;99.90;;;;;;5029950;28;20257;-67
2022/01/03 10:38:37;;;;;;;1.38;0.60;;;6.60;99.90;;;;;;5027649;28;20645;-67
2022/01/03 10:41:14;;;;;;;0.60;0.60;;;6.60;99.90;;;;;;5031353;28;20218;-67
2022/01/03 10:43:46;;;;;;;0.90;0.70;;;6.70;99.90;;;;;;5025791;28;20605;-68
2022/01/03 10:46:23;;;;;;;0.60;0.52;;;6.80;99.90;;;;;;5027884;28;20219;-68
2022/01/03 10:48:56;;;;;;;1.40;0.90;;;6.80;99.90;;;;;;5027080;28;20226;-67
2022/01/03 10:51:28;;;;;;;1.75;0.50;;;6.90;99.90;;;;;;5029557;28;20232;-68
2022/01/03 10:53:59;;;;;;;1.40;0.75;;;7.00;99.90;;;;;;5030342;28;20309;-68
2022/01/03 10:56:34;;;;;;;0.68;0.45;;;7.10;99.90;;;;;;5039132;28;20230;-68
2022/01/03 10:59:22;;;;;;;0.75;0.52;;;7.10;99.90;;;;;;5027469;28;20260;-68
2022/01/03 11:02:04;;;;;;;0.50;0.50;;;7.10;99.90;;;;;;5028658;28;20230;-68
2022/01/03 11:04:43;;;;;;;1.48;0.50;;;7.20;99.90;;;;;;5026783;28;20218;-71
2022/01/03 11:13:12;;;;;;;0.40;0.40;;;7.30;99.90;;;;;;5028726;28;20676;-67
2022/01/03 11:15:44;;;;;;;0.38;0.38;;;7.30;99.90;;;;;;5027584;28;20222;-67
2022/01/03 11:18:19;;;;;;;0.30;0.20;;;7.30;99.90;;;;;;5035334;28;20237;-67
2022/01/03 11:20:52;;;;;;;0.40;0.40;;;7.30;99.90;;;;;;5035007;28;20221;-70
2022/01/03 11:23:24;;;;;;;0.30;0.30;;;7.30;99.90;;;;;;5028780;28;20226;-65
2022/01/03 11:25:55;;;;;;;3.60;0.47;;;7.30;99.90;;;;;;5026744;28;20657;-65
2022/01/03 11:28:29;;;;;;;1.58;0.30;;;7.30;99.90;;;;;;5030951;28;20222;-64
2022/01/03 11:31:02;;;;;;;1.52;0.60;;;7.30;99.90;;;;;;5026691;28;20300;-65
2022/01/03 11:33:36;;;;;;;1.48;0.43;;;7.30;99.90;;;;;;5027418;28;20617;-65
2022/01/03 11:36:28;;;;;;;0.40;0.30;;;7.30;99.90;;;;;;5028949;28;20668;-65
2022/01/03 11:39:10;;;;;;;0.30;0.25;;;7.30;99.90;;;;;;5028215;28;20222;-65
2022/01/03 11:41:44;;;;;;;0.30;0.20;;;7.30;99.90;;;;;;5025915;28;20225;-65
2022/01/03 11:44:16;;;;;;;0.20;0.17;;;7.20;99.90;;;;;;5032817;28;20222;-65
2022/01/03 11:46:48;;;;;;;0.25;0.20;;;7.20;99.90;;;;;;5027144;28;20221;-66
2022/01/03 11:49:21;;;;;;;0.50;0.20;;;7.10;99.90;;;;;;5035264;28;20310;-65
2022/01/03 11:51:53;;;;;;;0.30;0.20;;;7.10;99.90;;;;;;5032205;28;20206;-65
2022/01/03 11:54:25;;;;;;;1.27;0.20;;;7.00;99.90;;;;;;5029221;28;20304;-65
2022/01/03 11:57:10;;;;;;;0.30;0.30;;;7.00;99.90;;;;;;5033708;28;20226;-66
2022/01/03 12:05:53;;;;;;;0.40;0.30;;;6.90;99.90;;;;;;5027460;28;20242;-65
2022/01/03 12:08:29;;;;;;;0.30;0.20;;;6.90;99.90;;;;;;5027012;28;20222;-65
2022/01/03 12:11:00;;;;;;;0.63;0.30;;;6.80;99.90;;;;;;5037224;28;20235;-65
2022/01/03 12:13:53;;;;;;;0.95;0.20;;;6.80;99.90;;;;;;5043740;28;20653;-65
2022/01/03 12:16:57;;;;;;;1.08;0.25;;;6.70;99.90;;;;;;5027589;28;20222;-65
2022/01/03 12:19:34;;;;;;;0.20;0.20;;;6.50;99.90;;;;;;4942390;29;20217;-65
2022/01/03 12:22:15;;;;;;;0.95;0.20;;;6.40;99.90;;;;;;5018634;28;20279;-65
2022/01/03 12:25:04;;;;;;;0.20;0.10;;;6.30;99.90;;;;;;5028784;28;20229;-67
2022/01/03 12:27:44;;;;;;;0.20;0.10;;;6.30;99.90;;;;;;5020790;28;20230;-65
2022/01/03 12:30:23;;;;;;;0.50;0.20;;;6.30;99.90;;;;;;5028923;28;20570;-66
2022/01/03 12:33:16;;;;;;;0.20;0.10;;;6.30;99.90;;;;;;5028585;28;20222;-66
2022/01/03 12:35:48;;;;;;;0.40;0.20;;;6.30;99.90;;;;;;5025648;28;20222;-66
2022/01/03 12:38:28;;;;;;;0.20;0.10;;;6.20;99.90;;;;;;5029048;28;20222;-65
2022/01/03 12:41:04;;;;;;;0.30;0.20;;;6.10;99.90;;;;;;5019707;28;20258;-65
2022/01/03 12:43:44;;;;;;;0.30;0.20;;;6.10;99.90;;;;;;5031285;28;20233;-65
2022/01/03 12:46:24;;;;;;;0.20;0.20;;;6.00;99.90;;;;;;5027350;28;20222;-65
2022/01/03 12:48:58;;;;;;;0.40;0.40;;;6.10;99.90;;;;;;5022460;28;20210;-65
2022/01/03 12:51:39;;;;;;;0.38;0.20;;;6.00;99.90;;;;;;5025622;28;20226;-66
2022/01/03 12:54:12;;;;;;;0.30;0.20;;;6.00;99.90;;;;;;5034126;28;20214;-65
2022/01/03 12:56:43;;;;;;;0.20;0.20;;;6.00;99.90;;;;;;5023558;28;20301;-65
2022/01/03 12:59:18;;;;;;;0.30;0.20;;;6.10;99.90;;;;;;5032557;28;20225;-65
2022/01/03 13:01:49;;;;;;;1.30;0.22;;;6.00;99.90;;;;;;5028068;28;20217;-65
2022/01/03 13:04:27;;;;;;;0.30;0.17;;;6.00;99.90;;;;;;5025895;28;20564;-64
2022/01/03 13:07:05;;;;;;;0.32;0.30;;;6.00;99.90;;;;;;5028465;28;20237;-65
2022/01/03 13:09:42;;;;;;;0.75;0.20;;;5.90;99.90;;;;;;5027625;28;20695;-65
2022/01/03 13:12:13;;;;;;;0.30;0.20;;;5.90;99.90;;;;;;5029831;28;20213;-65
2022/01/03 13:14:44;;;;;;;0.75;0.20;;;5.90;99.90;;;;;;5027755;28;20633;-64
2022/01/03 13:17:16;;;;;;;0.70;0.30;;;5.90;99.90;;;;;;5023651;28;20218;-65
2022/01/03 13:19:47;;;;;;;0.30;0.30;;;5.90;99.90;;;;;;5029874;28;20221;-65
2022/01/03 13:22:18;;;;;;;0.40;0.28;;;6.00;99.90;;;;;;5029417;28;20301;-65
2022/01/03 13:24:51;;;;;;;0.30;0.20;;;6.00;99.90;;;;;;5036402;28;20300;-64
2022/01/03 13:27:23;;;;;;;0.82;0.30;;;6.00;99.90;;;;;;5016216;28;20236;-65
2022/01/03 13:29:57;;;;;;;0.93;0.30;;;5.90;99.90;;;;;;5028989;28;21134;-65
2022/01/03 13:32:30;;;;;;;0.30;0.20;;;5.90;99.90;;;;;;5040078;28;20226;-65
2022/01/03 13:35:02;;;;;;;0.40;0.20;;;5.80;99.90;;;;;;5025674;28;20589;-65
2022/01/03 13:37:33;;;;;;;0.30;0.20;;;5.80;99.90;;;;;;5031106;28;20257;-65
2022/01/03 13:40:07;;;;;;;0.40;0.20;;;5.70;99.90;;;;;;5029529;28;20214;-65
2022/01/03 13:42:44;;;;;;;0.40;0.20;;;5.60;99.90;;;;;;5032665;28;20221;-65
2022/01/03 13:49:11;;;;;;;0.30;0.20;;;5.70;99.90;;;;;;5034901;28;20225;-65
2022/01/03 13:51:11;;;;;;;0.85;0.20;;;5.50;99.90;;;;;;5031136;28;20241;-64
2022/01/03 13:53:51;;;;;;;0.50;0.20;;;5.40;99.90;;;;;;5028201;28;20216;-64
2022/01/03 13:56:23;;;;;;;1.50;0.35;;;5.30;99.90;;;;;;5028696;28;20218;-65
2022/01/03 13:59:00;;;;;;;0.40;0.20;;;5.30;99.90;;;;;;5023241;28;20221;-64